sensor_id;sensor_type;location;lat;lon;timestamp;pressure;altitude;pressure_sealevel;temperature;humidity
70815;BME280;58428;49.478;10.986;2023-04-27T00:00:44;98599.94;;;6.63;100.00
70815;BME280;58428;49.478;10.986;2023-04-27T00:03:10;98601.88;;;6.76;100.00
70815;BME280;58428;49.478;10.986;2023-04-27T00:05:37;98593.50;;;6.78;100.00
70815;BME280;58428;49.478;10.986;2023-04-27T00:08:06;98591.41;;;6.75;100.00
70815;BME280;58428;49.478;10.986;2023-04-27T00:10:32;98585.13;;;6.79;100.00
70815;BME280;58428;49.478;10.986;2023-04-27T00:12:58;98583.75;;;6.82;100.00
70815;BME280;58428;49.478;10.986;2023-04-27T00:15:23;98592.81;;;6.86;100.00
70815;BME280;58428;49.478;10.986;2023-04-27T00:17:49;98590.41;;;6.84;100.00
70815;BME280;58428;49.478;10.986;2023-04-27T00:20:14;98582.56;;;6.88;100.00
70815;BME280;58428;49.478;10.986;2023-04-27T00:22:40;98586.44;;;6.95;100.00
70815;BME280;58428;49.478;10.986;2023-04-27T00:25:06;98577.19;;;7.01;100.00
70815;BME280;58428;49.478;10.986;2023-04-27T00:27:32;98570.63;;;7.07;100.00
70815;BME280;58428;49.478;10.986;2023-04-27T00:29:57;98567.63;;;7.08;100.00
70815;BME280;58428;49.478;10.986;2023-04-27T00:32:23;98564.41;;;7.06;100.00
70815;BME280;58428;49.478;10.986;2023-04-27T00:34:49;98568.91;;;7.11;100.00
70815;BME280;58428;49.478;10.986;2023-04-27T00:37:14;98568.41;;;7.09;100.00
70815;BME280;58428;49.478;10.986;2023-04-27T00:39:40;98573.88;;;7.04;100.00
70815;BME280;58428;49.478;10.986;2023-04-27T00:42:05;98568.91;;;6.97;100.00
70815;BME280;58428;49.478;10.986;2023-04-27T00:44:35;98569.19;;;6.83;100.00
70815;BME280;58428;49.478;10.986;2023-04-27T00:47:01;98566.50;;;6.96;100.00
70815;BME280;58428;49.478;10.986;2023-04-27T00:49:26;98566.72;;;6.99;100.00
70815;BME280;58428;49.478;10.986;2023-04-27T00:51:52;98564.03;;;6.99;100.00
70815;BME280;58428;49.478;10.986;2023-04-27T00:54:22;98559.66;;;7.03;100.00
70815;BME280;58428;49.478;10.986;2023-04-27T00:56:50;98561.63;;;7.11;100.00
70815;BME280;58428;49.478;10.986;2023-04-27T00:59:16;98556.25;;;7.11;100.00
70815;BME280;58428;49.478;10.986;2023-04-27T01:01:43;98552.00;;;7.10;100.00
70815;BME280;58428;49.478;10.986;2023-04-27T01:04:08;98553.78;;;7.15;100.00
70815;BME280;58428;49.478;10.986;2023-04-27T01:06:34;98557.75;;;7.17;100.00
70815;BME280;58428;49.478;10.986;2023-04-27T01:08:59;98557.38;;;7.10;100.00
70815;BME280;58428;49.478;10.986;2023-04-27T01:11:25;98563.81;;;6.96;100.00
70815;BME280;58428;49.478;10.986;2023-04-27T01:13:53;98558.44;;;6.83;100.00
70815;BME280;58428;49.478;10.986;2023-04-27T01:16:19;98551.84;;;6.75;100.00
70815;BME280;58428;49.478;10.986;2023-04-27T01:18:45;98557.06;;;6.72;100.00
70815;BME280;58428;49.478;10.986;2023-04-27T01:21:12;98560.53;;;6.72;100.00
70815;BME280;58428;49.478;10.986;2023-04-27T01:23:38;98565.50;;;6.65;100.00
70815;BME280;58428;49.478;10.986;2023-04-27T01:26:05;98563.78;;;6.56;100.00
70815;BME280;58428;49.478;10.986;2023-04-27T01:28:30;98563.50;;;6.58;100.00
70815;BME280;58428;49.478;10.986;2023-04-27T01:30:56;98564.13;;;6.68;100.00
70815;BME280;58428;49.478;10.986;2023-04-27T01:33:21;98566.50;;;6.69;100.00
70815;BME280;58428;49.478;10.986;2023-04-27T01:35:47;98567.38;;;6.65;100.00
70815;BME280;58428;49.478;10.986;2023-04-27T01:38:12;98570.97;;;6.60;100.00
70815;BME280;58428;49.478;10.986;2023-04-27T01:40:39;98578.13;;;6.52;100.00
70815;BME280;58428;49.478;10.986;2023-04-27T01:43:04;98573.34;;;6.49;100.00
70815;BME280;58428;49.478;10.986;2023-04-27T01:45:29;98569.22;;;6.38;100.00
70815;BME280;58428;49.478;10.986;2023-04-27T01:47:55;98573.72;;;6.42;100.00
70815;BME280;58428;49.478;10.986;2023-04-27T01:50:21;98578.59;;;6.40;100.00
70815;BME280;58428;49.478;10.986;2023-04-27T01:52:50;98569.22;;;6.38;100.00
70815;BME280;58428;49.478;10.986;2023-04-27T01:55:16;98581.88;;;6.37;100.00
70815;BME280;58428;49.478;10.986;2023-04-27T01:57:41;98577.84;;;6.22;100.00
70815;BME280;58428;49.478;10.986;2023-04-27T02:00:07;98580.66;;;6.30;100.00
70815;BME280;58428;49.478;10.986;2023-04-27T02:02:33;98578.03;;;6.25;100.00
70815;BME280;58428;49.478;10.986;2023-04-27T02:05:01;98582.56;;;6.29;100.00
70815;BME280;58428;49.478;10.986;2023-04-27T02:07:30;98581.16;;;6.32;100.00
70815;BME280;58428;49.478;10.986;2023-04-27T02:09:57;98580.78;;;6.38;100.00
70815;BME280;58428;49.478;10.986;2023-04-27T02:12:22;98575.09;;;6.40;100.00
70815;BME280;58428;49.478;10.986;2023-04-27T02:14:48;98577.19;;;6.29;100.00
70815;BME280;58428;49.478;10.986;2023-04-27T02:17:14;98578.16;;;6.20;100.00
70815;BME280;58428;49.478;10.986;2023-04-27T02:19:40;98584.69;;;6.14;100.00
70815;BME280;58428;49.478;10.986;2023-04-27T02:22:05;98580.22;;;6.10;100.00
70815;BME280;58428;49.478;10.986;2023-04-27T02:24:31;98578.38;;;6.05;100.00
70815;BME280;58428;49.478;10.986;2023-04-27T02:26:58;98578.63;;;5.90;100.00
70815;BME280;58428;49.478;10.986;2023-04-27T02:29:28;98575.28;;;5.80;100.00
70815;BME280;58428;49.478;10.986;2023-04-27T02:31:55;98578.84;;;5.76;100.00
70815;BME280;58428;49.478;10.986;2023-04-27T02:34:20;98580.44;;;5.77;100.00
70815;BME280;58428;49.478;10.986;2023-04-27T02:36:46;98579.97;;;5.70;100.00
70815;BME280;58428;49.478;10.986;2023-04-27T02:39:11;98586.22;;;5.65;100.00
70815;BME280;58428;49.478;10.986;2023-04-27T02:41:37;98588.59;;;5.67;100.00
70815;BME280;58428;49.478;10.986;2023-04-27T02:44:03;98592.16;;;5.62;100.00
70815;BME280;58428;49.478;10.986;2023-04-27T02:46:28;98588.25;;;5.55;100.00
70815;BME280;58428;49.478;10.986;2023-04-27T02:48:54;98593.03;;;5.58;100.00
70815;BME280;58428;49.478;10.986;2023-04-27T02:51:20;98589.75;;;5.43;100.00
70815;BME280;58428;49.478;10.986;2023-04-27T02:53:46;98603.41;;;5.46;100.00
70815;BME280;58428;49.478;10.986;2023-04-27T02:56:12;98594.25;;;5.47;100.00
70815;BME280;58428;49.478;10.986;2023-04-27T02:58:37;98599.63;;;5.47;100.00
70815;BME280;58428;49.478;10.986;2023-04-27T03:01:03;98599.09;;;5.45;100.00
70815;BME280;58428;49.478;10.986;2023-04-27T03:03:28;98600.91;;;5.31;100.00
70815;BME280;58428;49.478;10.986;2023-04-27T03:05:54;98606.78;;;5.33;100.00
70815;BME280;58428;49.478;10.986;2023-04-27T03:08:19;98600.41;;;5.29;100.00
70815;BME280;58428;49.478;10.986;2023-04-27T03:10:45;98596.91;;;5.29;100.00
70815;BME280;58428;49.478;10.986;2023-04-27T03:13:13;98598.78;;;5.28;100.00
70815;BME280;58428;49.478;10.986;2023-04-27T03:15:39;98588.56;;;5.30;100.00
70815;BME280;58428;49.478;10.986;2023-04-27T03:18:05;98602.34;;;5.24;100.00
70815;BME280;58428;49.478;10.986;2023-04-27T03:20:30;98599.66;;;5.24;100.00
70815;BME280;58428;49.478;10.986;2023-04-27T03:22:56;98599.94;;;5.22;100.00
70815;BME280;58428;49.478;10.986;2023-04-27T03:25:21;98610.91;;;5.26;100.00
70815;BME280;58428;49.478;10.986;2023-04-27T03:27:47;98610.63;;;5.27;100.00
70815;BME280;58428;49.478;10.986;2023-04-27T03:30:12;98607.03;;;5.13;100.00
70815;BME280;58428;49.478;10.986;2023-04-27T03:32:38;98603.25;;;5.14;100.00
70815;BME280;58428;49.478;10.986;2023-04-27T03:35:05;98604.28;;;5.18;100.00
70815;BME280;58428;49.478;10.986;2023-04-27T03:37:30;98609.88;;;5.22;100.00
70815;BME280;58428;49.478;10.986;2023-04-27T03:39:56;98613.19;;;5.14;100.00
70815;BME280;58428;49.478;10.986;2023-04-27T03:42:23;98610.78;;;5.12;100.00
70815;BME280;58428;49.478;10.986;2023-04-27T03:44:49;98618.19;;;4.97;100.00
70815;BME280;58428;49.478;10.986;2023-04-27T03:47:14;98625.00;;;5.13;100.00
70815;BME280;58428;49.478;10.986;2023-04-27T03:49:40;98625.44;;;5.20;100.00
70815;BME280;58428;49.478;10.986;2023-04-27T03:52:07;98636.69;;;5.22;100.00
70815;BME280;58428;49.478;10.986;2023-04-27T03:54:32;98637.72;;;5.26;100.00
70815;BME280;58428;49.478;10.986;2023-04-27T03:57:00;98640.78;;;5.14;100.00
70815;BME280;58428;49.478;10.986;2023-04-27T03:59:28;98635.78;;;5.08;100.00
70815;BME280;58428;49.478;10.986;2023-04-27T04:01:54;98639.72;;;5.15;100.00
70815;BME280;58428;49.478;10.986;2023-04-27T04:04:21;98636.97;;;5.20;100.00
70815;BME280;58428;49.478;10.986;2023-04-27T04:06:47;98636.28;;;5.33;100.00
70815;BME280;58428;49.478;10.986;2023-04-27T04:09:12;98630.59;;;5.58;100.00
70815;BME280;58428;49.478;10.986;2023-04-27T04:11:38;98638.94;;;5.56;100.00
70815;BME280;58428;49.478;10.986;2023-04-27T04:14:03;98631.94;;;5.37;100.00
70815;BME280;58428;49.478;10.986;2023-04-27T04:16:29;98629.53;;;5.36;100.00
70815;BME280;58428;49.478;10.986;2023-04-27T04:18:54;98622.47;;;5.45;100.00
70815;BME280;58428;49.478;10.986;2023-04-27T04:21:20;98618.69;;;5.46;100.00
70815;BME280;58428;49.478;10.986;2023-04-27T04:23:45;98613.63;;;5.44;100.00
70815;BME280;58428;49.478;10.986;2023-04-27T04:26:11;98620.00;;;5.48;100.00
70815;BME280;58428;49.478;10.986;2023-04-27T04:28:37;98616.97;;;5.54;100.00
70815;BME280;58428;49.478;10.986;2023-04-27T04:31:03;98626.03;;;5.58;100.00
70815;BME280;58428;49.478;10.986;2023-04-27T04:33:29;98620.28;;;5.65;100.00
70815;BME280;58428;49.478;10.986;2023-04-27T04:35:55;98624.88;;;5.64;100.00
70815;BME280;58428;49.478;10.986;2023-04-27T04:38:21;98622.19;;;5.64;100.00
70815;BME280;58428;49.478;10.986;2023-04-27T04:40:47;98627.47;;;5.51;100.00
70815;BME280;58428;49.478;10.986;2023-04-27T04:43:14;98622.31;;;5.54;100.00
70815;BME280;58428;49.478;10.986;2023-04-27T04:45:39;98626.91;;;5.54;100.00
70815;BME280;58428;49.478;10.986;2023-04-27T04:48:05;98629.09;;;5.52;100.00
70815;BME280;58428;49.478;10.986;2023-04-27T04:50:30;98633.28;;;5.58;100.00
70815;BME280;58428;49.478;10.986;2023-04-27T04:52:56;98632.06;;;5.69;100.00
70815;BME280;58428;49.478;10.986;2023-04-27T04:55:21;98630.19;;;5.69;100.00
70815;BME280;58428;49.478;10.986;2023-04-27T04:57:48;98629.56;;;5.77;100.00
70815;BME280;58428;49.478;10.986;2023-04-27T05:00:14;98621.72;;;5.81;100.00
70815;BME280;58428;49.478;10.986;2023-04-27T05:02:39;98624.06;;;5.87;100.00
70815;BME280;58428;49.478;10.986;2023-04-27T05:05:05;98620.50;;;5.91;100.00
70815;BME280;58428;49.478;10.986;2023-04-27T05:07:32;98617.94;;;6.00;100.00
70815;BME280;58428;49.478;10.986;2023-04-27T05:09:57;98623.41;;;5.95;100.00
70815;BME280;58428;49.478;10.986;2023-04-27T05:12:24;98626.44;;;5.88;100.00
70815;BME280;58428;49.478;10.986;2023-04-27T05:14:50;98632.09;;;5.87;100.00
70815;BME280;58428;49.478;10.986;2023-04-27T05:17:16;98631.81;;;5.88;100.00
70815;BME280;58428;49.478;10.986;2023-04-27T05:19:41;98640.63;;;5.71;100.00
70815;BME280;58428;49.478;10.986;2023-04-27T05:22:07;98647.38;;;5.68;100.00
70815;BME280;58428;49.478;10.986;2023-04-27T05:24:33;98651.94;;;5.68;100.00
70815;BME280;58428;49.478;10.986;2023-04-27T05:26:59;98652.72;;;5.68;100.00
70815;BME280;58428;49.478;10.986;2023-04-27T05:29:24;98653.94;;;5.81;100.00
70815;BME280;58428;49.478;10.986;2023-04-27T05:31:50;98658.72;;;5.84;100.00
70815;BME280;58428;49.478;10.986;2023-04-27T05:34:15;98653.72;;;5.77;100.00
70815;BME280;58428;49.478;10.986;2023-04-27T05:36:42;98659.84;;;5.83;100.00
70815;BME280;58428;49.478;10.986;2023-04-27T05:39:08;98665.75;;;5.98;100.00
70815;BME280;58428;49.478;10.986;2023-04-27T05:41:34;98657.38;;;6.04;100.00
70815;BME280;58428;49.478;10.986;2023-04-27T05:44:00;98663.75;;;6.08;100.00
70815;BME280;58428;49.478;10.986;2023-04-27T05:46:25;98660.69;;;6.15;100.00
70815;BME280;58428;49.478;10.986;2023-04-27T05:48:50;98660.31;;;6.21;100.00
70815;BME280;58428;49.478;10.986;2023-04-27T05:51:16;98668.03;;;6.27;100.00
70815;BME280;58428;49.478;10.986;2023-04-27T05:53:41;98670.91;;;6.31;100.00
70815;BME280;58428;49.478;10.986;2023-04-27T05:56:07;98674.03;;;6.38;100.00
70815;BME280;58428;49.478;10.986;2023-04-27T05:58:33;98669.16;;;6.40;100.00
70815;BME280;58428;49.478;10.986;2023-04-27T06:01:02;98665.34;;;6.59;100.00
70815;BME280;58428;49.478;10.986;2023-04-27T06:03:30;98667.97;;;6.64;100.00
70815;BME280;58428;49.478;10.986;2023-04-27T06:05:58;98673.25;;;6.69;100.00
70815;BME280;58428;49.478;10.986;2023-04-27T06:08:24;98667.13;;;6.95;100.00
70815;BME280;58428;49.478;10.986;2023-04-27T06:10:52;98673.91;;;7.06;100.00
70815;BME280;58428;49.478;10.986;2023-04-27T06:13:17;98667.28;;;7.30;100.00
70815;BME280;58428;49.478;10.986;2023-04-27T06:15:43;98668.56;;;7.46;100.00
70815;BME280;58428;49.478;10.986;2023-04-27T06:18:09;98665.03;;;7.72;100.00
70815;BME280;58428;49.478;10.986;2023-04-27T06:20:34;98664.22;;;7.98;100.00
70815;BME280;58428;49.478;10.986;2023-04-27T06:23:01;98665.47;;;8.27;100.00
70815;BME280;58428;49.478;10.986;2023-04-27T06:25:26;98664.19;;;8.46;100.00
70815;BME280;58428;49.478;10.986;2023-04-27T06:27:53;98669.22;;;8.61;100.00
70815;BME280;58428;49.478;10.986;2023-04-27T06:30:19;98661.22;;;8.78;100.00
70815;BME280;58428;49.478;10.986;2023-04-27T06:32:46;98672.38;;;8.85;100.00
70815;BME280;58428;49.478;10.986;2023-04-27T06:35:14;98663.66;;;8.88;100.00
70815;BME280;58428;49.478;10.986;2023-04-27T06:37:39;98660.00;;;9.14;100.00
70815;BME280;58428;49.478;10.986;2023-04-27T06:40:05;98670.56;;;9.32;100.00
70815;BME280;58428;49.478;10.986;2023-04-27T06:42:32;98669.22;;;9.52;100.00
70815;BME280;58428;49.478;10.986;2023-04-27T06:44:59;98667.63;;;9.51;100.00
70815;BME280;58428;49.478;10.986;2023-04-27T06:47:26;98670.22;;;9.64;100.00
70815;BME280;58428;49.478;10.986;2023-04-27T06:49:51;98662.31;;;9.76;100.00
70815;BME280;58428;49.478;10.986;2023-04-27T06:52:17;98659.66;;;9.92;100.00
70815;BME280;58428;49.478;10.986;2023-04-27T06:54:42;98660.00;;;9.91;100.00
70815;BME280;58428;49.478;10.986;2023-04-27T06:57:08;98659.19;;;9.99;100.00
70815;BME280;58428;49.478;10.986;2023-04-27T06:59:33;98663.78;;;9.98;100.00
70815;BME280;58428;49.478;10.986;2023-04-27T07:01:59;98659.00;;;9.87;100.00
70815;BME280;58428;49.478;10.986;2023-04-27T07:04:24;98661.88;;;9.91;100.00
70815;BME280;58428;49.478;10.986;2023-04-27T07:06:50;98665.88;;;10.01;100.00
70815;BME280;58428;49.478;10.986;2023-04-27T07:09:18;98649.34;;;10.11;100.00
70815;BME280;58428;49.478;10.986;2023-04-27T07:11:43;98657.16;;;10.13;100.00
70815;BME280;58428;49.478;10.986;2023-04-27T07:14:09;98657.16;;;10.13;100.00
70815;BME280;58428;49.478;10.986;2023-04-27T07:16:34;98658.25;;;10.12;100.00
70815;BME280;58428;49.478;10.986;2023-04-27T07:19:00;98653.63;;;9.95;100.00
70815;BME280;58428;49.478;10.986;2023-04-27T07:21:26;98662.06;;;10.19;100.00
70815;BME280;58428;49.478;10.986;2023-04-27T07:23:54;98660.78;;;10.08;100.00
70815;BME280;58428;49.478;10.986;2023-04-27T07:26:20;98657.31;;;10.41;100.00
70815;BME280;58428;49.478;10.986;2023-04-27T07:28:49;98659.22;;;10.74;100.00
70815;BME280;58428;49.478;10.986;2023-04-27T07:31:15;98662.06;;;10.86;100.00
70815;BME280;58428;49.478;10.986;2023-04-27T07:33:40;98662.69;;;10.83;100.00
70815;BME280;58428;49.478;10.986;2023-04-27T07:36:06;98657.78;;;11.22;100.00
70815;BME280;58428;49.478;10.986;2023-04-27T07:38:32;98661.38;;;11.51;100.00
70815;BME280;58428;49.478;10.986;2023-04-27T07:40:59;98662.44;;;11.67;100.00
70815;BME280;58428;49.478;10.986;2023-04-27T07:43:26;98661.22;;;11.85;100.00
70815;BME280;58428;49.478;10.986;2023-04-27T07:45:51;98663.31;;;12.08;100.00
70815;BME280;58428;49.478;10.986;2023-04-27T07:48:18;98661.38;;;12.09;100.00
70815;BME280;58428;49.478;10.986;2023-04-27T07:50:44;98669.16;;;11.90;100.00
70815;BME280;58428;49.478;10.986;2023-04-27T07:53:10;98653.69;;;11.90;100.00
70815;BME280;58428;49.478;10.986;2023-04-27T07:55:36;98670.69;;;11.99;100.00
70815;BME280;58428;49.478;10.986;2023-04-27T07:58:01;98668.75;;;12.00;100.00
70815;BME280;58428;49.478;10.986;2023-04-27T08:00:28;98670.69;;;11.71;100.00
70815;BME280;58428;49.478;10.986;2023-04-27T08:02:56;98670.63;;;11.50;100.00
70815;BME280;58428;49.478;10.986;2023-04-27T08:05:22;98669.03;;;11.49;100.00
70815;BME280;58428;49.478;10.986;2023-04-27T08:07:47;98666.78;;;11.51;100.00
70815;BME280;58428;49.478;10.986;2023-04-27T08:10:14;98673.84;;;11.81;100.00
70815;BME280;58428;49.478;10.986;2023-04-27T08:12:39;98669.34;;;12.13;100.00
70815;BME280;58428;49.478;10.986;2023-04-27T08:15:05;98676.16;;;12.40;100.00
70815;BME280;58428;49.478;10.986;2023-04-27T08:17:34;98676.34;;;12.55;100.00
70815;BME280;58428;49.478;10.986;2023-04-27T08:20:00;98672.78;;;12.43;100.00
70815;BME280;58428;49.478;10.986;2023-04-27T08:22:26;98675.97;;;12.45;100.00
70815;BME280;58428;49.478;10.986;2023-04-27T08:24:51;98664.75;;;12.46;100.00
70815;BME280;58428;49.478;10.986;2023-04-27T08:27:17;98665.38;;;12.31;100.00
70815;BME280;58428;49.478;10.986;2023-04-27T08:29:45;98662.84;;;12.47;100.00
70815;BME280;58428;49.478;10.986;2023-04-27T08:32:12;98662.69;;;12.63;100.00
70815;BME280;58428;49.478;10.986;2023-04-27T08:34:37;98661.38;;;12.69;100.00
70815;BME280;58428;49.478;10.986;2023-04-27T08:37:03;98668.41;;;12.70;100.00
70815;BME280;58428;49.478;10.986;2023-04-27T08:39:28;98657.41;;;12.67;100.00
70815;BME280;58428;49.478;10.986;2023-04-27T08:41:54;98667.00;;;12.64;99.43
70815;BME280;58428;49.478;10.986;2023-04-27T08:44:19;98658.41;;;12.62;100.00
70815;BME280;58428;49.478;10.986;2023-04-27T08:46:45;98657.84;;;12.69;100.00
70815;BME280;58428;49.478;10.986;2023-04-27T08:49:11;98651.56;;;12.77;97.36
70815;BME280;58428;49.478;10.986;2023-04-27T08:51:36;98655.94;;;12.89;98.38
70815;BME280;58428;49.478;10.986;2023-04-27T08:54:02;98652.25;;;13.06;98.18
70815;BME280;58428;49.478;10.986;2023-04-27T08:56:28;98657.34;;;13.07;93.46
70815;BME280;58428;49.478;10.986;2023-04-27T08:58:55;98652.19;;;13.14;94.26
70815;BME280;58428;49.478;10.986;2023-04-27T09:01:21;98653.09;;;13.18;92.92
70815;BME280;58428;49.478;10.986;2023-04-27T09:03:48;98643.59;;;13.24;92.99
70815;BME280;58428;49.478;10.986;2023-04-27T09:06:14;98655.38;;;13.28;91.38
70815;BME280;58428;49.478;10.986;2023-04-27T09:11:10;98648.13;;;13.32;88.39
70815;BME280;58428;49.478;10.986;2023-04-27T09:13:37;98653.31;;;13.37;83.76
70815;BME280;58428;49.478;10.986;2023-04-27T09:16:02;98642.72;;;13.56;86.55
70815;BME280;58428;49.478;10.986;2023-04-27T09:18:31;98641.69;;;13.72;87.44
70815;BME280;58428;49.478;10.986;2023-04-27T09:20:59;98641.78;;;13.87;88.87
70815;BME280;58428;49.478;10.986;2023-04-27T09:23:29;98630.81;;;13.96;84.26
70815;BME280;58428;49.478;10.986;2023-04-27T09:25:56;98634.91;;;14.01;83.50
70815;BME280;58428;49.478;10.986;2023-04-27T09:28:25;98633.59;;;13.99;81.49
70815;BME280;58428;49.478;10.986;2023-04-27T09:30:55;98624.09;;;14.05;82.66
70815;BME280;58428;49.478;10.986;2023-04-27T09:33:29;98621.84;;;14.07;80.56
70815;BME280;58428;49.478;10.986;2023-04-27T09:35:57;98616.16;;;14.00;78.74
70815;BME280;58428;49.478;10.986;2023-04-27T09:38:23;98617.28;;;13.99;77.60
70815;BME280;58428;49.478;10.986;2023-04-27T09:40:49;98610.50;;;14.17;78.90
70815;BME280;58428;49.478;10.986;2023-04-27T09:43:15;98609.75;;;14.32;79.01
70815;BME280;58428;49.478;10.986;2023-04-27T09:45:40;98608.16;;;14.42;78.01
70815;BME280;58428;49.478;10.986;2023-04-27T09:48:07;98608.56;;;14.56;77.27
70815;BME280;58428;49.478;10.986;2023-04-27T09:50:35;98603.75;;;14.65;77.16
70815;BME280;58428;49.478;10.986;2023-04-27T09:53:01;98608.94;;;14.70;73.00
70815;BME280;58428;49.478;10.986;2023-04-27T09:55:34;98602.81;;;14.73;73.02
70815;BME280;58428;49.478;10.986;2023-04-27T09:58:25;98604.97;;;14.95;71.94
70815;BME280;58428;49.478;10.986;2023-04-27T10:06:42;98595.41;;;15.62;68.82
70815;BME280;58428;49.478;10.986;2023-04-27T10:09:20;98596.53;;;15.91;71.28
70815;BME280;58428;49.478;10.986;2023-04-27T10:11:50;98593.19;;;16.17;71.59
70815;BME280;58428;49.478;10.986;2023-04-27T10:14:18;98598.91;;;16.27;68.45
70815;BME280;58428;49.478;10.986;2023-04-27T10:16:50;98599.00;;;16.30;65.69
70815;BME280;58428;49.478;10.986;2023-04-27T10:19:16;98599.06;;;16.34;66.63
70815;BME280;58428;49.478;10.986;2023-04-27T10:21:54;98601.63;;;15.93;58.77
70815;BME280;58428;49.478;10.986;2023-04-27T10:24:35;98590.13;;;15.84;66.16
70815;BME280;58428;49.478;10.986;2023-04-27T10:27:02;98589.25;;;15.80;69.18
70815;BME280;58428;49.478;10.986;2023-04-27T10:29:43;98596.22;;;15.78;64.18
70815;BME280;58428;49.478;10.986;2023-04-27T10:32:11;98584.56;;;16.15;69.14
70815;BME280;58428;49.478;10.986;2023-04-27T10:34:39;98577.72;;;16.58;67.54
70815;BME280;58428;49.478;10.986;2023-04-27T10:37:09;98584.38;;;16.79;64.04
70815;BME280;58428;49.478;10.986;2023-04-27T10:39:41;98583.09;;;16.73;64.22
70815;BME280;58428;49.478;10.986;2023-04-27T10:42:08;98583.25;;;16.61;63.26
70815;BME280;58428;49.478;10.986;2023-04-27T10:44:35;98579.38;;;16.25;64.13
70815;BME280;58428;49.478;10.986;2023-04-27T10:47:12;98580.28;;;15.80;61.15
70815;BME280;58428;49.478;10.986;2023-04-27T10:49:39;98582.22;;;15.64;65.16
70815;BME280;58428;49.478;10.986;2023-04-27T10:52:05;98578.59;;;15.60;64.87
70815;BME280;58428;49.478;10.986;2023-04-27T10:54:31;98582.84;;;15.27;63.41
70815;BME280;58428;49.478;10.986;2023-04-27T10:57:06;98577.69;;;15.22;65.84
70815;BME280;58428;49.478;10.986;2023-04-27T10:59:33;98580.31;;;15.49;68.78
70815;BME280;58428;49.478;10.986;2023-04-27T11:01:58;98572.72;;;15.58;65.63
70815;BME280;58428;49.478;10.986;2023-04-27T11:04:33;98574.81;;;15.80;65.63
70815;BME280;58428;49.478;10.986;2023-04-27T11:06:59;98573.06;;;16.06;66.05
70815;BME280;58428;49.478;10.986;2023-04-27T11:09:26;98570.09;;;15.95;65.47
70815;BME280;58428;49.478;10.986;2023-04-27T11:11:51;98567.88;;;15.67;64.40
70815;BME280;58428;49.478;10.986;2023-04-27T11:14:22;98580.34;;;15.83;63.14
70815;BME280;58428;49.478;10.986;2023-04-27T11:16:49;98578.28;;;15.95;63.52
70815;BME280;58428;49.478;10.986;2023-04-27T11:19:14;98579.56;;;15.67;61.57
70815;BME280;58428;49.478;10.986;2023-04-27T11:21:40;98579.78;;;15.28;60.53
70815;BME280;58428;49.478;10.986;2023-04-27T11:24:06;98564.22;;;15.44;67.30
70815;BME280;58428;49.478;10.986;2023-04-27T11:26:32;98566.00;;;15.86;65.81
70815;BME280;58428;49.478;10.986;2023-04-27T11:28:59;98573.69;;;15.99;63.07
70815;BME280;58428;49.478;10.986;2023-04-27T11:31:46;98572.34;;;16.09;61.53
70815;BME280;58428;49.478;10.986;2023-04-27T11:34:24;98575.00;;;16.05;61.56
70815;BME280;58428;49.478;10.986;2023-04-27T11:37:05;98572.84;;;15.95;61.20
70815;BME280;58428;49.478;10.986;2023-04-27T11:39:37;98575.50;;;16.26;63.99
70815;BME280;58428;49.478;10.986;2023-04-27T11:42:26;98578.38;;;16.52;61.93
70815;BME280;58428;49.478;10.986;2023-04-27T11:45:11;98577.06;;;16.27;62.08
70815;BME280;58428;49.478;10.986;2023-04-27T11:47:37;98576.13;;;16.20;60.74
70815;BME280;58428;49.478;10.986;2023-04-27T11:50:05;98574.03;;;16.51;65.18
70815;BME280;58428;49.478;10.986;2023-04-27T11:52:34;98565.75;;;17.07;66.30
70815;BME280;58428;49.478;10.986;2023-04-27T11:55:01;98573.84;;;17.19;62.14
70815;BME280;58428;49.478;10.986;2023-04-27T11:57:31;98575.84;;;17.22;58.43
70815;BME280;58428;49.478;10.986;2023-04-27T11:59:58;98579.06;;;17.08;59.19
70815;BME280;58428;49.478;10.986;2023-04-27T12:02:26;98580.09;;;17.00;59.72
70815;BME280;58428;49.478;10.986;2023-04-27T12:04:53;98573.44;;;16.79;61.87
70815;BME280;58428;49.478;10.986;2023-04-27T12:07:18;98582.06;;;16.81;60.68
70815;BME280;58428;49.478;10.986;2023-04-27T12:09:44;98577.13;;;16.68;61.84
70815;BME280;58428;49.478;10.986;2023-04-27T12:12:10;98574.63;;;16.78;61.56
70815;BME280;58428;49.478;10.986;2023-04-27T12:14:42;98568.94;;;16.68;59.54
70815;BME280;58428;49.478;10.986;2023-04-27T12:17:07;98561.16;;;16.70;63.18
70815;BME280;58428;49.478;10.986;2023-04-27T12:19:33;98559.69;;;16.94;61.72
70815;BME280;58428;49.478;10.986;2023-04-27T12:21:58;98558.72;;;17.06;61.67
70815;BME280;58428;49.478;10.986;2023-04-27T12:24:24;98557.25;;;17.31;61.35
70815;BME280;58428;49.478;10.986;2023-04-27T12:26:50;98561.97;;;17.33;59.68
70815;BME280;58428;49.478;10.986;2023-04-27T12:29:18;98556.47;;;16.89;57.06
70815;BME280;58428;49.478;10.986;2023-04-27T12:31:43;98557.13;;;16.83;61.42
70815;BME280;58428;49.478;10.986;2023-04-27T12:34:08;98564.72;;;16.93;57.62
70815;BME280;58428;49.478;10.986;2023-04-27T12:36:34;98553.88;;;16.96;61.84
70815;BME280;58428;49.478;10.986;2023-04-27T12:39:17;98552.09;;;17.07;61.18
70815;BME280;58428;49.478;10.986;2023-04-27T12:41:52;98551.03;;;17.11;61.97
70815;BME280;58428;49.478;10.986;2023-04-27T12:44:18;98551.66;;;16.83;59.30
70815;BME280;58428;49.478;10.986;2023-04-27T12:46:46;98550.03;;;16.59;59.70
70815;BME280;58428;49.478;10.986;2023-04-27T12:49:15;98552.03;;;16.62;61.77
70815;BME280;58428;49.478;10.986;2023-04-27T12:51:41;98546.63;;;17.07;62.86
70815;BME280;58428;49.478;10.986;2023-04-27T12:54:08;98544.22;;;17.46;62.38